sensor_id;sensor_type;location;lat;lon;timestamp;P1;durP1;ratioP1;P2;durP2;ratioP2
73747;SDS011;62056;52.130;5.428;2022-08-21T00:01:49;2.67;;;2.45;;
73747;SDS011;62056;52.130;5.428;2022-08-21T00:04:16;2.53;;;1.90;;
73747;SDS011;62056;52.130;5.428;2022-08-21T00:06:47;2.75;;;2.10;;
73747;SDS011;62056;52.130;5.428;2022-08-21T00:09:14;3.35;;;2.35;;
73747;SDS011;62056;52.130;5.428;2022-08-21T00:11:41;4.90;;;2.40;;
73747;SDS011;62056;52.130;5.428;2022-08-21T00:14:08;3.10;;;1.97;;
73747;SDS011;62056;52.130;5.428;2022-08-21T00:16:36;3.53;;;2.38;;
73747;SDS011;62056;52.130;5.428;2022-08-21T00:19:03;3.47;;;2.58;;
73747;SDS011;62056;52.130;5.428;2022-08-21T00:21:29;4.32;;;2.60;;
73747;SDS011;62056;52.130;5.428;2022-08-21T00:23:56;2.63;;;2.30;;
73747;SDS011;62056;52.130;5.428;2022-08-21T00:26:23;2.97;;;2.08;;
73747;SDS011;62056;52.130;5.428;2022-08-21T00:28:49;4.53;;;2.38;;
73747;SDS011;62056;52.130;5.428;2022-08-21T00:31:16;4.93;;;2.45;;
73747;SDS011;62056;52.130;5.428;2022-08-21T00:33:44;3.58;;;2.53;;
73747;SDS011;62056;52.130;5.428;2022-08-21T00:36:12;3.90;;;2.42;;
73747;SDS011;62056;52.130;5.428;2022-08-21T00:38:39;3.63;;;2.90;;
73747;SDS011;62056;52.130;5.428;2022-08-21T00:41:06;4.43;;;2.30;;
73747;SDS011;62056;52.130;5.428;2022-08-21T00:43:55;3.85;;;2.78;;
73747;SDS011;62056;52.130;5.428;2022-08-21T00:46:22;7.88;;;3.85;;
73747;SDS011;62056;52.130;5.428;2022-08-21T00:48:53;3.45;;;2.53;;
73747;SDS011;62056;52.130;5.428;2022-08-21T00:51:27;2.35;;;2.15;;
73747;SDS011;62056;52.130;5.428;2022-08-21T00:54:05;6.10;;;2.20;;
73747;SDS011;62056;52.130;5.428;2022-08-21T00:56:44;2.60;;;2.13;;
73747;SDS011;62056;52.130;5.428;2022-08-21T00:59:14;4.53;;;2.75;;
73747;SDS011;62056;52.130;5.428;2022-08-21T01:01:42;4.22;;;2.40;;
73747;SDS011;62056;52.130;5.428;2022-08-21T01:04:09;4.20;;;2.87;;
73747;SDS011;62056;52.130;5.428;2022-08-21T01:06:35;5.20;;;2.38;;
73747;SDS011;62056;52.130;5.428;2022-08-21T01:09:02;5.38;;;2.50;;
73747;SDS011;62056;52.130;5.428;2022-08-21T01:11:29;5.05;;;2.70;;
73747;SDS011;62056;52.130;5.428;2022-08-21T01:13:56;6.35;;;2.70;;
73747;SDS011;62056;52.130;5.428;2022-08-21T01:16:24;3.65;;;2.65;;
73747;SDS011;62056;52.130;5.428;2022-08-21T01:18:51;3.22;;;2.92;;
73747;SDS011;62056;52.130;5.428;2022-08-21T01:21:19;4.82;;;2.88;;
73747;SDS011;62056;52.130;5.428;2022-08-21T01:23:54;5.20;;;2.65;;
73747;SDS011;62056;52.130;5.428;2022-08-21T01:26:23;3.50;;;2.60;;
73747;SDS011;62056;52.130;5.428;2022-08-21T01:29:16;4.80;;;2.78;;
73747;SDS011;62056;52.130;5.428;2022-08-21T01:31:55;2.75;;;2.55;;
73747;SDS011;62056;52.130;5.428;2022-08-21T01:34:21;6.43;;;2.97;;
73747;SDS011;62056;52.130;5.428;2022-08-21T01:36:48;3.55;;;2.08;;
73747;SDS011;62056;52.130;5.428;2022-08-21T01:39:15;2.70;;;2.17;;
73747;SDS011;62056;52.130;5.428;2022-08-21T01:41:42;3.10;;;2.70;;
73747;SDS011;62056;52.130;5.428;2022-08-21T01:44:09;4.50;;;2.70;;
73747;SDS011;62056;52.130;5.428;2022-08-21T01:46:36;4.88;;;2.72;;
73747;SDS011;62056;52.130;5.428;2022-08-21T01:49:03;4.07;;;2.95;;
73747;SDS011;62056;52.130;5.428;2022-08-21T01:51:30;4.70;;;2.70;;
73747;SDS011;62056;52.130;5.428;2022-08-21T01:53:57;5.70;;;2.50;;
73747;SDS011;62056;52.130;5.428;2022-08-21T01:56:23;4.18;;;2.47;;
73747;SDS011;62056;52.130;5.428;2022-08-21T01:58:51;3.42;;;2.63;;
73747;SDS011;62056;52.130;5.428;2022-08-21T02:01:17;4.30;;;2.80;;
73747;SDS011;62056;52.130;5.428;2022-08-21T02:03:44;4.70;;;2.63;;
73747;SDS011;62056;52.130;5.428;2022-08-21T02:06:12;7.53;;;2.83;;
73747;SDS011;62056;52.130;5.428;2022-08-21T02:08:41;3.00;;;2.67;;
73747;SDS011;62056;52.130;5.428;2022-08-21T02:11:08;5.10;;;3.22;;
73747;SDS011;62056;52.130;5.428;2022-08-21T02:13:34;7.18;;;3.22;;
73747;SDS011;62056;52.130;5.428;2022-08-21T02:16:01;5.18;;;2.75;;
73747;SDS011;62056;52.130;5.428;2022-08-21T02:18:29;4.87;;;3.03;;
73747;SDS011;62056;52.130;5.428;2022-08-21T02:20:55;4.00;;;2.97;;
73747;SDS011;62056;52.130;5.428;2022-08-21T02:23:23;3.15;;;2.47;;
73747;SDS011;62056;52.130;5.428;2022-08-21T02:25:53;3.45;;;2.95;;
73747;SDS011;62056;52.130;5.428;2022-08-21T02:28:22;4.55;;;2.50;;
73747;SDS011;62056;52.130;5.428;2022-08-21T02:30:51;6.03;;;3.30;;
73747;SDS011;62056;52.130;5.428;2022-08-21T02:33:18;4.47;;;2.90;;
73747;SDS011;62056;52.130;5.428;2022-08-21T02:35:45;2.88;;;2.58;;
73747;SDS011;62056;52.130;5.428;2022-08-21T02:38:15;4.60;;;2.97;;
73747;SDS011;62056;52.130;5.428;2022-08-21T02:40:45;2.90;;;2.60;;
73747;SDS011;62056;52.130;5.428;2022-08-21T02:43:16;5.03;;;3.00;;
73747;SDS011;62056;52.130;5.428;2022-08-21T02:45:46;3.97;;;2.90;;
73747;SDS011;62056;52.130;5.428;2022-08-21T02:48:16;3.72;;;2.65;;
73747;SDS011;62056;52.130;5.428;2022-08-21T02:50:47;6.10;;;2.80;;
73747;SDS011;62056;52.130;5.428;2022-08-21T02:53:18;3.67;;;3.00;;
73747;SDS011;62056;52.130;5.428;2022-08-21T02:55:47;3.92;;;3.00;;
73747;SDS011;62056;52.130;5.428;2022-08-21T02:58:16;6.15;;;2.95;;
73747;SDS011;62056;52.130;5.428;2022-08-21T03:00:45;5.43;;;3.08;;
73747;SDS011;62056;52.130;5.428;2022-08-21T03:03:12;3.25;;;2.95;;
73747;SDS011;62056;52.130;5.428;2022-08-21T03:05:41;3.95;;;2.65;;
73747;SDS011;62056;52.130;5.428;2022-08-21T03:08:09;4.75;;;3.40;;
73747;SDS011;62056;52.130;5.428;2022-08-21T03:10:39;4.85;;;3.28;;
73747;SDS011;62056;52.130;5.428;2022-08-21T03:13:09;3.30;;;2.80;;
73747;SDS011;62056;52.130;5.428;2022-08-21T03:15:37;5.47;;;3.42;;
73747;SDS011;62056;52.130;5.428;2022-08-21T03:18:06;4.28;;;3.25;;
73747;SDS011;62056;52.130;5.428;2022-08-21T03:20:34;3.47;;;2.60;;
73747;SDS011;62056;52.130;5.428;2022-08-21T03:23:04;4.18;;;2.40;;
73747;SDS011;62056;52.130;5.428;2022-08-21T03:25:38;4.55;;;3.20;;
73747;SDS011;62056;52.130;5.428;2022-08-21T03:28:08;4.28;;;2.92;;
73747;SDS011;62056;52.130;5.428;2022-08-21T03:30:42;3.30;;;3.00;;
73747;SDS011;62056;52.130;5.428;2022-08-21T03:33:09;6.17;;;3.50;;
73747;SDS011;62056;52.130;5.428;2022-08-21T03:35:41;6.97;;;3.15;;
73747;SDS011;62056;52.130;5.428;2022-08-21T03:38:12;8.15;;;3.58;;
73747;SDS011;62056;52.130;5.428;2022-08-21T03:40:40;3.53;;;2.75;;
73747;SDS011;62056;52.130;5.428;2022-08-21T03:43:09;4.40;;;4.00;;
73747;SDS011;62056;52.130;5.428;2022-08-21T03:45:36;5.10;;;3.60;;
73747;SDS011;62056;52.130;5.428;2022-08-21T03:48:06;4.63;;;3.47;;
73747;SDS011;62056;52.130;5.428;2022-08-21T03:50:36;5.20;;;3.78;;
73747;SDS011;62056;52.130;5.428;2022-08-21T03:53:07;5.80;;;3.53;;
73747;SDS011;62056;52.130;5.428;2022-08-21T03:55:43;8.82;;;3.90;;
73747;SDS011;62056;52.130;5.428;2022-08-21T03:58:16;6.10;;;3.40;;
73747;SDS011;62056;52.130;5.428;2022-08-21T04:00:45;4.90;;;3.40;;
73747;SDS011;62056;52.130;5.428;2022-08-21T04:03:13;8.52;;;3.17;;
73747;SDS011;62056;52.130;5.428;2022-08-21T04:05:40;5.28;;;3.33;;
73747;SDS011;62056;52.130;5.428;2022-08-21T04:08:08;10.25;;;4.10;;
73747;SDS011;62056;52.130;5.428;2022-08-21T04:10:36;3.80;;;3.50;;
73747;SDS011;62056;52.130;5.428;2022-08-21T04:13:05;3.90;;;3.08;;
73747;SDS011;62056;52.130;5.428;2022-08-21T04:15:33;5.53;;;3.08;;
73747;SDS011;62056;52.130;5.428;2022-08-21T04:18:00;9.77;;;5.57;;
73747;SDS011;62056;52.130;5.428;2022-08-21T04:20:27;5.45;;;3.67;;
73747;SDS011;62056;52.130;5.428;2022-08-21T04:22:54;6.20;;;3.83;;
73747;SDS011;62056;52.130;5.428;2022-08-21T04:25:22;3.55;;;3.20;;
73747;SDS011;62056;52.130;5.428;2022-08-21T04:27:51;5.15;;;3.45;;
73747;SDS011;62056;52.130;5.428;2022-08-21T04:30:18;4.75;;;3.88;;
73747;SDS011;62056;52.130;5.428;2022-08-21T04:32:46;5.97;;;4.45;;
73747;SDS011;62056;52.130;5.428;2022-08-21T04:35:15;4.40;;;4.00;;
73747;SDS011;62056;52.130;5.428;2022-08-21T04:37:45;5.60;;;5.00;;
73747;SDS011;62056;52.130;5.428;2022-08-21T04:40:13;6.93;;;4.05;;
73747;SDS011;62056;52.130;5.428;2022-08-21T04:42:45;6.68;;;5.38;;
73747;SDS011;62056;52.130;5.428;2022-08-21T04:47:52;8.93;;;4.73;;
73747;SDS011;62056;52.130;5.428;2022-08-21T04:50:21;5.10;;;4.53;;
73747;SDS011;62056;52.130;5.428;2022-08-21T04:52:51;8.32;;;4.55;;
73747;SDS011;62056;52.130;5.428;2022-08-21T04:55:18;8.65;;;4.68;;
73747;SDS011;62056;52.130;5.428;2022-08-21T04:57:46;9.07;;;5.53;;
73747;SDS011;62056;52.130;5.428;2022-08-21T05:00:14;6.80;;;5.00;;
73747;SDS011;62056;52.130;5.428;2022-08-21T05:02:45;8.63;;;5.20;;
73747;SDS011;62056;52.130;5.428;2022-08-21T05:05:13;5.00;;;4.00;;
73747;SDS011;62056;52.130;5.428;2022-08-21T05:07:41;8.40;;;4.47;;
73747;SDS011;62056;52.130;5.428;2022-08-21T05:10:10;8.38;;;5.40;;
73747;SDS011;62056;52.130;5.428;2022-08-21T05:12:39;6.40;;;4.77;;
73747;SDS011;62056;52.130;5.428;2022-08-21T05:15:08;4.65;;;3.90;;
73747;SDS011;62056;52.130;5.428;2022-08-21T05:17:39;6.47;;;4.30;;
73747;SDS011;62056;52.130;5.428;2022-08-21T05:20:08;5.95;;;4.53;;
73747;SDS011;62056;52.130;5.428;2022-08-21T05:22:36;4.30;;;3.83;;
73747;SDS011;62056;52.130;5.428;2022-08-21T05:25:04;5.30;;;3.70;;
73747;SDS011;62056;52.130;5.428;2022-08-21T05:27:36;4.18;;;3.53;;
73747;SDS011;62056;52.130;5.428;2022-08-21T05:30:06;4.60;;;3.80;;
73747;SDS011;62056;52.130;5.428;2022-08-21T05:32:34;4.93;;;3.92;;
73747;SDS011;62056;52.130;5.428;2022-08-21T05:35:01;7.57;;;4.43;;
73747;SDS011;62056;52.130;5.428;2022-08-21T05:37:32;6.33;;;4.40;;
73747;SDS011;62056;52.130;5.428;2022-08-21T05:39:59;8.57;;;5.07;;
73747;SDS011;62056;52.130;5.428;2022-08-21T05:42:47;5.60;;;4.30;;
73747;SDS011;62056;52.130;5.428;2022-08-21T05:45:21;7.40;;;4.60;;
73747;SDS011;62056;52.130;5.428;2022-08-21T05:48:09;8.32;;;4.00;;
73747;SDS011;62056;52.130;5.428;2022-08-21T05:50:38;4.37;;;3.97;;
73747;SDS011;62056;52.130;5.428;2022-08-21T05:53:06;6.97;;;4.50;;
73747;SDS011;62056;52.130;5.428;2022-08-21T05:55:34;5.95;;;4.25;;
73747;SDS011;62056;52.130;5.428;2022-08-21T05:58:09;5.63;;;3.80;;
73747;SDS011;62056;52.130;5.428;2022-08-21T06:00:37;6.40;;;4.15;;
73747;SDS011;62056;52.130;5.428;2022-08-21T06:03:03;7.13;;;4.67;;
73747;SDS011;62056;52.130;5.428;2022-08-21T06:05:30;4.05;;;3.22;;
73747;SDS011;62056;52.130;5.428;2022-08-21T06:08:03;5.07;;;3.70;;
73747;SDS011;62056;52.130;5.428;2022-08-21T06:10:30;5.22;;;3.30;;
73747;SDS011;62056;52.130;5.428;2022-08-21T06:12:57;6.15;;;2.95;;
73747;SDS011;62056;52.130;5.428;2022-08-21T06:15:24;5.60;;;3.55;;
73747;SDS011;62056;52.130;5.428;2022-08-21T06:17:52;6.75;;;3.50;;
73747;SDS011;62056;52.130;5.428;2022-08-21T06:20:19;8.43;;;4.30;;
73747;SDS011;62056;52.130;5.428;2022-08-21T06:22:46;7.47;;;4.20;;
73747;SDS011;62056;52.130;5.428;2022-08-21T06:25:13;4.65;;;2.65;;
73747;SDS011;62056;52.130;5.428;2022-08-21T06:27:40;4.53;;;3.42;;
73747;SDS011;62056;52.130;5.428;2022-08-21T06:30:06;6.40;;;4.13;;
73747;SDS011;62056;52.130;5.428;2022-08-21T06:32:35;7.25;;;3.05;;
73747;SDS011;62056;52.130;5.428;2022-08-21T06:35:04;6.20;;;3.13;;
73747;SDS011;62056;52.130;5.428;2022-08-21T06:37:32;4.30;;;3.63;;
73747;SDS011;62056;52.130;5.428;2022-08-21T06:39:59;4.55;;;3.13;;
73747;SDS011;62056;52.130;5.428;2022-08-21T06:42:25;3.97;;;2.90;;
73747;SDS011;62056;52.130;5.428;2022-08-21T06:44:54;6.53;;;3.33;;
73747;SDS011;62056;52.130;5.428;2022-08-21T06:47:21;4.10;;;2.33;;
73747;SDS011;62056;52.130;5.428;2022-08-21T06:49:48;9.57;;;2.97;;
73747;SDS011;62056;52.130;5.428;2022-08-21T06:52:15;5.72;;;2.85;;
73747;SDS011;62056;52.130;5.428;2022-08-21T06:54:42;6.53;;;3.07;;
73747;SDS011;62056;52.130;5.428;2022-08-21T06:57:09;8.02;;;3.90;;
73747;SDS011;62056;52.130;5.428;2022-08-21T06:59:35;8.10;;;3.03;;
73747;SDS011;62056;52.130;5.428;2022-08-21T07:02:02;5.45;;;2.40;;
73747;SDS011;62056;52.130;5.428;2022-08-21T07:04:29;6.82;;;2.92;;
73747;SDS011;62056;52.130;5.428;2022-08-21T07:06:56;6.83;;;3.60;;
73747;SDS011;62056;52.130;5.428;2022-08-21T07:09:23;6.70;;;2.38;;
73747;SDS011;62056;52.130;5.428;2022-08-21T07:11:51;5.13;;;2.55;;
73747;SDS011;62056;52.130;5.428;2022-08-21T07:14:19;8.93;;;3.53;;
73747;SDS011;62056;52.130;5.428;2022-08-21T07:16:46;3.33;;;2.30;;
73747;SDS011;62056;52.130;5.428;2022-08-21T07:19:13;4.87;;;2.80;;
73747;SDS011;62056;52.130;5.428;2022-08-21T07:21:40;8.30;;;3.55;;
73747;SDS011;62056;52.130;5.428;2022-08-21T07:24:07;8.45;;;2.45;;
73747;SDS011;62056;52.130;5.428;2022-08-21T07:26:34;7.97;;;3.72;;
73747;SDS011;62056;52.130;5.428;2022-08-21T07:29:01;10.18;;;3.67;;
73747;SDS011;62056;52.130;5.428;2022-08-21T07:31:29;8.63;;;3.07;;
73747;SDS011;62056;52.130;5.428;2022-08-21T07:33:56;7.30;;;3.20;;
73747;SDS011;62056;52.130;5.428;2022-08-21T07:36:23;8.50;;;4.35;;
73747;SDS011;62056;52.130;5.428;2022-08-21T07:38:50;5.47;;;2.55;;
73747;SDS011;62056;52.130;5.428;2022-08-21T07:41:20;12.27;;;3.63;;
73747;SDS011;62056;52.130;5.428;2022-08-21T07:43:48;5.67;;;2.13;;
73747;SDS011;62056;52.130;5.428;2022-08-21T07:46:18;9.57;;;3.20;;
73747;SDS011;62056;52.130;5.428;2022-08-21T07:48:46;8.20;;;2.65;;
73747;SDS011;62056;52.130;5.428;2022-08-21T07:51:14;4.25;;;2.55;;
73747;SDS011;62056;52.130;5.428;2022-08-21T07:53:47;9.73;;;3.30;;
73747;SDS011;62056;52.130;5.428;2022-08-21T07:56:16;2.63;;;1.77;;
73747;SDS011;62056;52.130;5.428;2022-08-21T07:58:45;7.35;;;2.90;;
73747;SDS011;62056;52.130;5.428;2022-08-21T08:01:11;7.47;;;1.70;;
73747;SDS011;62056;52.130;5.428;2022-08-21T08:03:38;10.40;;;2.33;;
73747;SDS011;62056;52.130;5.428;2022-08-21T08:06:06;7.93;;;2.15;;
73747;SDS011;62056;52.130;5.428;2022-08-21T08:08:34;4.53;;;2.25;;
73747;SDS011;62056;52.130;5.428;2022-08-21T08:11:01;6.10;;;2.15;;
73747;SDS011;62056;52.130;5.428;2022-08-21T08:13:27;11.00;;;2.53;;
73747;SDS011;62056;52.130;5.428;2022-08-21T08:15:54;6.15;;;2.55;;
73747;SDS011;62056;52.130;5.428;2022-08-21T08:18:21;6.85;;;1.88;;
73747;SDS011;62056;52.130;5.428;2022-08-21T08:20:47;7.27;;;2.93;;
73747;SDS011;62056;52.130;5.428;2022-08-21T08:23:15;5.60;;;2.35;;
73747;SDS011;62056;52.130;5.428;2022-08-21T08:25:42;6.88;;;2.40;;
73747;SDS011;62056;52.130;5.428;2022-08-21T08:28:09;6.65;;;2.30;;
73747;SDS011;62056;52.130;5.428;2022-08-21T08:30:42;7.63;;;2.60;;
73747;SDS011;62056;52.130;5.428;2022-08-21T08:33:09;6.43;;;2.90;;
73747;SDS011;62056;52.130;5.428;2022-08-21T08:35:36;6.03;;;2.40;;
73747;SDS011;62056;52.130;5.428;2022-08-21T08:38:04;15.73;;;2.50;;
73747;SDS011;62056;52.130;5.428;2022-08-21T08:40:37;8.82;;;2.45;;
73747;SDS011;62056;52.130;5.428;2022-08-21T08:43:11;9.73;;;2.30;;
73747;SDS011;62056;52.130;5.428;2022-08-21T08:45:40;10.32;;;2.88;;
73747;SDS011;62056;52.130;5.428;2022-08-21T08:48:13;9.35;;;2.00;;
73747;SDS011;62056;52.130;5.428;2022-08-21T08:50:49;3.85;;;1.42;;
73747;SDS011;62056;52.130;5.428;2022-08-21T08:53:23;7.88;;;2.40;;
73747;SDS011;62056;52.130;5.428;2022-08-21T08:55:58;6.03;;;1.90;;
73747;SDS011;62056;52.130;5.428;2022-08-21T08:58:29;4.37;;;1.57;;
73747;SDS011;62056;52.130;5.428;2022-08-21T09:00:58;5.28;;;2.10;;
73747;SDS011;62056;52.130;5.428;2022-08-21T09:03:26;5.57;;;2.03;;
73747;SDS011;62056;52.130;5.428;2022-08-21T09:05:55;7.63;;;1.83;;
73747;SDS011;62056;52.130;5.428;2022-08-21T09:08:32;4.72;;;1.95;;
73747;SDS011;62056;52.130;5.428;2022-08-21T09:13:52;6.20;;;2.00;;
73747;SDS011;62056;52.130;5.428;2022-08-21T09:19:13;10.25;;;2.08;;
73747;SDS011;62056;52.130;5.428;2022-08-21T09:21:56;7.00;;;2.70;;
73747;SDS011;62056;52.130;5.428;2022-08-21T09:24:31;4.80;;;1.67;;
73747;SDS011;62056;52.130;5.428;2022-08-21T09:27:07;6.57;;;1.85;;
73747;SDS011;62056;52.130;5.428;2022-08-21T09:29:41;9.43;;;2.60;;
73747;SDS011;62056;52.130;5.428;2022-08-21T09:32:15;8.20;;;2.55;;
73747;SDS011;62056;52.130;5.428;2022-08-21T09:34:54;9.20;;;2.13;;
73747;SDS011;62056;52.130;5.428;2022-08-21T09:37:23;7.70;;;1.77;;
73747;SDS011;62056;52.130;5.428;2022-08-21T09:39:51;6.95;;;1.65;;
73747;SDS011;62056;52.130;5.428;2022-08-21T09:42:22;4.65;;;1.30;;
73747;SDS011;62056;52.130;5.428;2022-08-21T09:45:13;9.13;;;2.10;;
73747;SDS011;62056;52.130;5.428;2022-08-21T09:47:43;7.20;;;1.83;;
73747;SDS011;62056;52.130;5.428;2022-08-21T09:50:13;5.73;;;1.53;;
73747;SDS011;62056;52.130;5.428;2022-08-21T09:52:48;4.68;;;1.60;;
73747;SDS011;62056;52.130;5.428;2022-08-21T09:55:23;4.85;;;1.95;;
73747;SDS011;62056;52.130;5.428;2022-08-21T09:58:15;5.03;;;1.65;;
73747;SDS011;62056;52.130;5.428;2022-08-21T10:00:43;6.30;;;1.60;;
73747;SDS011;62056;52.130;5.428;2022-08-21T10:03:12;8.57;;;1.93;;
73747;SDS011;62056;52.130;5.428;2022-08-21T10:08:20;7.45;;;1.73;;
73747;SDS011;62056;52.130;5.428;2022-08-21T10:10:55;3.10;;;1.30;;
73747;SDS011;62056;52.130;5.428;2022-08-21T10:16:40;5.87;;;2.07;;
73747;SDS011;62056;52.130;5.428;2022-08-21T10:19:45;4.43;;;1.83;;
73747;SDS011;62056;52.130;5.428;2022-08-21T10:25:32;4.43;;;1.70;;
73747;SDS011;62056;52.130;5.428;2022-08-21T10:31:34;4.30;;;1.43;;
73747;SDS011;62056;52.130;5.428;2022-08-21T10:34:23;4.88;;;1.98;;
73747;SDS011;62056;52.130;5.428;2022-08-21T10:42:33;3.38;;;1.40;;
73747;SDS011;62056;52.130;5.428;2022-08-21T10:45:27;4.77;;;1.33;;
73747;SDS011;62056;52.130;5.428;2022-08-21T10:48:04;5.10;;;1.30;;
73747;SDS011;62056;52.130;5.428;2022-08-21T10:50:39;2.83;;;1.60;;
73747;SDS011;62056;52.130;5.428;2022-08-21T10:53:25;8.18;;;2.33;;
73747;SDS011;62056;52.130;5.428;2022-08-21T10:56:13;4.25;;;1.23;;
73747;SDS011;62056;52.130;5.428;2022-08-21T10:58:50;3.67;;;1.30;;
73747;SDS011;62056;52.130;5.428;2022-08-21T11:01:24;7.50;;;1.35;;
73747;SDS011;62056;52.130;5.428;2022-08-21T11:04:04;5.22;;;1.52;;
73747;SDS011;62056;52.130;5.428;2022-08-21T11:06:41;4.88;;;1.70;;
73747;SDS011;62056;52.130;5.428;2022-08-21T11:09:14;5.18;;;1.42;;
73747;SDS011;62056;52.130;5.428;2022-08-21T11:11:50;2.53;;;0.90;;
73747;SDS011;62056;52.130;5.428;2022-08-21T11:14:39;3.90;;;1.58;;
73747;SDS011;62056;52.130;5.428;2022-08-21T11:17:24;3.88;;;1.60;;
73747;SDS011;62056;52.130;5.428;2022-08-21T11:19:59;5.40;;;1.40;;
73747;SDS011;62056;52.130;5.428;2022-08-21T11:22:35;2.97;;;1.30;;
73747;SDS011;62056;52.130;5.428;2022-08-21T11:25:17;4.50;;;1.53;;
73747;SDS011;62056;52.130;5.428;2022-08-21T11:27:50;5.53;;;1.73;;
73747;SDS011;62056;52.130;5.428;2022-08-21T11:30:22;4.07;;;1.80;;
73747;SDS011;62056;52.130;5.428;2022-08-21T11:33:04;7.22;;;1.50;;
73747;SDS011;62056;52.130;5.428;2022-08-21T11:35:39;4.57;;;1.80;;
73747;SDS011;62056;52.130;5.428;2022-08-21T11:38:20;3.50;;;1.43;;
73747;SDS011;62056;52.130;5.428;2022-08-21T11:43:39;5.00;;;1.50;;
73747;SDS011;62056;52.130;5.428;2022-08-21T11:49:06;9.27;;;1.80;;
73747;SDS011;62056;52.130;5.428;2022-08-21T11:54:25;3.75;;;1.70;;
73747;SDS011;62056;52.130;5.428;2022-08-21T12:00:00;4.07;;;1.88;;
73747;SDS011;62056;52.130;5.428;2022-08-21T12:02:36;3.90;;;1.50;;
73747;SDS011;62056;52.130;5.428;2022-08-21T12:05:09;3.03;;;1.50;;
73747;SDS011;62056;52.130;5.428;2022-08-21T12:07:48;3.28;;;1.40;;
73747;SDS011;62056;52.130;5.428;2022-08-21T12:10:32;3.45;;;1.58;;
73747;SDS011;62056;52.130;5.428;2022-08-21T12:13:10;6.65;;;1.60;;
73747;SDS011;62056;52.130;5.428;2022-08-21T12:16:11;7.38;;;2.35;;
73747;SDS011;62056;52.130;5.428;2022-08-21T12:18:40;7.33;;;1.70;;
73747;SDS011;62056;52.130;5.428;2022-08-21T12:21:19;6.35;;;1.77;;
73747;SDS011;62056;52.130;5.428;2022-08-21T12:23:58;3.97;;;1.88;;
73747;SDS011;62056;52.130;5.428;2022-08-21T12:26:36;3.53;;;1.70;;
73747;SDS011;62056;52.130;5.428;2022-08-21T12:29:22;8.07;;;2.40;;
73747;SDS011;62056;52.130;5.428;2022-08-21T12:31:56;6.97;;;1.93;;
73747;SDS011;62056;52.130;5.428;2022-08-21T12:34:37;4.95;;;2.08;;
73747;SDS011;62056;52.130;5.428;2022-08-21T12:37:18;6.55;;;1.80;;
73747;SDS011;62056;52.130;5.428;2022-08-21T12:39:54;4.57;;;1.95;;
73747;SDS011;62056;52.130;5.428;2022-08-21T12:42:31;3.38;;;1.90;;
73747;SDS011;62056;52.130;5.428;2022-08-21T12:45:11;6.30;;;1.70;;
73747;SDS011;62056;52.130;5.428;2022-08-21T12:47:48;4.53;;;1.50;;
73747;SDS011;62056;52.130;5.428;2022-08-21T12:50:23;3.58;;;1.30;;
73747;SDS011;62056;52.130;5.428;2022-08-21T12:53:02;3.17;;;1.35;;
73747;SDS011;62056;52.130;5.428;2022-08-21T12:55:45;4.85;;;1.63;;
73747;SDS011;62056;52.130;5.428;2022-08-21T12:58:18;3.23;;;1.47;;
73747;SDS011;62056;52.130;5.428;2022-08-21T13:00:50;8.10;;;1.95;;
73747;SDS011;62056;52.130;5.428;2022-08-21T13:03:19;4.63;;;1.90;;
73747;SDS011;62056;52.130;5.428;2022-08-21T13:05:48;3.15;;;1.55;;
73747;SDS011;62056;52.130;5.428;2022-08-21T13:08:18;3.58;;;1.40;;
73747;SDS011;62056;52.130;5.428;2022-08-21T13:10:47;3.83;;;1.50;;
73747;SDS011;62056;52.130;5.428;2022-08-21T13:13:24;4.38;;;1.65;;
73747;SDS011;62056;52.130;5.428;2022-08-21T13:16:04;3.00;;;1.63;;
73747;SDS011;62056;52.130;5.428;2022-08-21T13:18:34;5.13;;;1.67;;
73747;SDS011;62056;52.130;5.428;2022-08-21T13:21:12;2.47;;;1.58;;
73747;SDS011;62056;52.130;5.428;2022-08-21T13:23:40;7.03;;;1.70;;
73747;SDS011;62056;52.130;5.428;2022-08-21T13:26:13;3.28;;;1.30;;
73747;SDS011;62056;52.130;5.428;2022-08-21T13:28:44;4.50;;;1.60;;
73747;SDS011;62056;52.130;5.428;2022-08-21T13:31:19;4.53;;;1.50;;
73747;SDS011;62056;52.130;5.428;2022-08-21T13:33:51;4.85;;;1.40;;
73747;SDS011;62056;52.130;5.428;2022-08-21T13:36:20;2.50;;;1.17;;
73747;SDS011;62056;52.130;5.428;2022-08-21T13:38:53;3.78;;;1.63;;
73747;SDS011;62056;52.130;5.428;2022-08-21T13:41:31;6.57;;;1.67;;
73747;SDS011;62056;52.130;5.428;2022-08-21T13:44:01;7.25;;;2.40;;
73747;SDS011;62056;52.130;5.428;2022-08-21T13:46:42;2.75;;;1.20;;
73747;SDS011;62056;52.130;5.428;2022-08-21T13:49:10;3.83;;;1.80;;
73747;SDS011;62056;52.130;5.428;2022-08-21T13:51:41;2.50;;;1.48;;
73747;SDS011;62056;52.130;5.428;2022-08-21T13:54:18;5.05;;;1.40;;
73747;SDS011;62056;52.130;5.428;2022-08-21T13:56:49;5.38;;;1.50;;
73747;SDS011;62056;52.130;5.428;2022-08-21T13:59:26;4.28;;;1.58;;
73747;SDS011;62056;52.130;5.428;2022-08-21T14:01:58;4.73;;;1.47;;
73747;SDS011;62056;52.130;5.428;2022-08-21T14:04:35;7.95;;;1.63;;
73747;SDS011;62056;52.130;5.428;2022-08-21T14:07:14;5.35;;;1.70;;
73747;SDS011;62056;52.130;5.428;2022-08-21T14:09:44;5.28;;;1.42;;
73747;SDS011;62056;52.130;5.428;2022-08-21T14:12:17;3.30;;;1.88;;
73747;SDS011;62056;52.130;5.428;2022-08-21T14:14:50;5.87;;;1.63;;
73747;SDS011;62056;52.130;5.428;2022-08-21T14:17:26;6.80;;;1.60;;
73747;SDS011;62056;52.130;5.428;2022-08-21T14:19:59;2.92;;;1.70;;
73747;SDS011;62056;52.130;5.428;2022-08-21T14:22:37;4.63;;;1.73;;
73747;SDS011;62056;52.130;5.428;2022-08-21T14:30:28;4.40;;;1.33;;
73747;SDS011;62056;52.130;5.428;2022-08-21T14:33:03;5.55;;;1.67;;
73747;SDS011;62056;52.130;5.428;2022-08-21T14:35:30;4.22;;;1.25;;
73747;SDS011;62056;52.130;5.428;2022-08-21T14:37:57;6.35;;;1.85;;
73747;SDS011;62056;52.130;5.428;2022-08-21T14:40:24;7.23;;;1.60;;
73747;SDS011;62056;52.130;5.428;2022-08-21T14:42:51;5.35;;;1.50;;
73747;SDS011;62056;52.130;5.428;2022-08-21T14:45:19;6.35;;;1.75;;
73747;SDS011;62056;52.130;5.428;2022-08-21T14:47:53;5.63;;;1.65;;
73747;SDS011;62056;52.130;5.428;2022-08-21T14:50:20;4.03;;;1.27;;
73747;SDS011;62056;52.130;5.428;2022-08-21T14:52:46;4.57;;;1.53;;
73747;SDS011;62056;52.130;5.428;2022-08-21T14:55:15;3.30;;;1.42;;
73747;SDS011;62056;52.130;5.428;2022-08-21T14:57:44;2.47;;;1.40;;
73747;SDS011;62056;52.130;5.428;2022-08-21T15:00:14;5.03;;;1.20;;
73747;SDS011;62056;52.130;5.428;2022-08-21T15:02:52;2.38;;;1.38;;
73747;SDS011;62056;52.130;5.428;2022-08-21T15:05:19;5.23;;;1.70;;
73747;SDS011;62056;52.130;5.428;2022-08-21T15:07:58;7.18;;;1.42;;
73747;SDS011;62056;52.130;5.428;2022-08-21T15:10:24;3.85;;;1.75;;
73747;SDS011;62056;52.130;5.428;2022-08-21T15:12:51;3.13;;;1.45;;
73747;SDS011;62056;52.130;5.428;2022-08-21T15:15:18;4.30;;;1.52;;
73747;SDS011;62056;52.130;5.428;2022-08-21T15:17:45;2.93;;;1.27;;
73747;SDS011;62056;52.130;5.428;2022-08-21T15:20:13;4.43;;;1.58;;
73747;SDS011;62056;52.130;5.428;2022-08-21T15:32:01;4.63;;;1.60;;
73747;SDS011;62056;52.130;5.428;2022-08-21T15:34:42;4.70;;;2.08;;
73747;SDS011;62056;52.130;5.428;2022-08-21T15:37:08;6.20;;;1.65;;
73747;SDS011;62056;52.130;5.428;2022-08-21T15:39:35;3.72;;;1.48;;
73747;SDS011;62056;52.130;5.428;2022-08-21T15:42:03;6.57;;;1.58;;
73747;SDS011;62056;52.130;5.428;2022-08-21T15:44:36;3.20;;;1.37;;
73747;SDS011;62056;52.130;5.428;2022-08-21T15:47:05;5.60;;;2.00;;
73747;SDS011;62056;52.130;5.428;2022-08-21T15:49:32;4.78;;;1.30;;
73747;SDS011;62056;52.130;5.428;2022-08-21T15:51:59;6.15;;;2.05;;
73747;SDS011;62056;52.130;5.428;2022-08-21T15:54:25;7.95;;;1.20;;
73747;SDS011;62056;52.130;5.428;2022-08-21T15:56:52;5.70;;;1.80;;
73747;SDS011;62056;52.130;5.428;2022-08-21T15:59:19;3.35;;;1.67;;
73747;SDS011;62056;52.130;5.428;2022-08-21T16:01:51;3.58;;;1.17;;
73747;SDS011;62056;52.130;5.428;2022-08-21T16:04:20;3.80;;;1.38;;